Time;durP1;ratioP1;P1;durP2;ratioP2;P2;SDS_P1;SDS_P2;PMS_P1;PMS_P2;Temp;Humidity;BMP_temperature;BMP_pressure;BME280_temperature;BME280_humidity;BME280_pressure;Samples;Min_cycle;Max_cycle;Signal;HPM_P1;HPM_P2
2024/01/13 00:01:46;;;;;;;;;;;;;;;5.23;67.24;102777.31;7357033;19;19946;-62
2024/01/13 00:04:11;;;;;;;;;;;;;;;5.24;67.17;102774.75;7358012;19;19911;-63
2024/01/13 00:06:37;;;;;;;;;;;;;;;5.23;67.45;102773.00;7359229;19;19926;-63
2024/01/13 00:09:02;;;;;;;;;;;;;;;5.25;67.17;102776.50;7359552;19;20623;-64
2024/01/13 00:11:27;;;;;;;;;;;;;;;5.24;67.41;102785.13;7359528;19;19922;-63
2024/01/13 00:13:52;;;;;;;;;;;;;;;5.23;67.37;102778.19;7359787;19;20274;-64
2024/01/13 00:16:18;;;;;;;;;;;;;;;5.22;67.05;102771.25;7353902;19;19963;-63
2024/01/13 00:18:43;;;;;;;;;;;;;;;5.22;67.23;102776.44;7359663;19;19918;-63
2024/01/13 00:21:09;;;;;;;;;;;;;;;5.21;67.56;102775.53;7356384;19;19923;-64
2024/01/13 00:23:34;;;;;;;;;;;;;;;5.21;67.40;102774.66;7355296;19;19926;-63
2024/01/13 00:26:00;;;;;;;;;;;;;;;5.21;67.31;102770.34;7356599;19;19923;-64
2024/01/13 00:28:25;;;;;;;;;;;;;;;5.21;67.17;102772.06;7353382;19;19918;-64
2024/01/13 00:30:50;;;;;;;;;;;;;;;5.21;67.44;102759.09;7356057;19;19922;-63
2024/01/13 00:33:15;;;;;;;;;;;;;;;5.20;67.24;102753.06;7354324;19;19941;-63
2024/01/13 00:35:41;;;;;;;;;;;;;;;5.19;67.22;102746.13;7362899;19;19959;-64
2024/01/13 00:38:06;;;;;;;;;;;;;;;5.18;67.48;102744.38;7363147;19;19990;-64
2024/01/13 00:40:31;;;;;;;;;;;;;;;5.17;67.35;102742.59;7359340;19;19935;-63
2024/01/13 00:42:57;;;;;;;;;;;;;;;5.17;67.34;102745.19;7368968;19;19910;-64
2024/01/13 00:45:22;;;;;;;;;;;;;;;5.16;67.57;102739.94;7365032;19;19928;-64
2024/01/13 00:47:47;;;;;;;;;;;;;;;5.15;67.56;102733.00;7361784;19;19929;-64
2024/01/13 00:50:12;;;;;;;;;;;;;;;5.14;67.58;102736.44;7359449;19;19910;-64
2024/01/13 00:52:38;;;;;;;;;;;;;;;5.13;67.51;102724.34;7360034;19;19926;-64
2024/01/13 00:55:03;;;;;;;;;;;;;;;5.12;67.25;102731.22;7365103;19;19911;-63
2024/01/13 00:57:28;;;;;;;;;;;;;;;5.12;67.54;102731.22;7364353;19;19947;-64
2024/01/13 00:59:54;;;;;;;;;;;;;;;5.12;67.28;102730.31;7360558;19;19922;-64
2024/01/13 01:02:19;;;;;;;;;;;;;;;5.11;67.18;102726.84;7358240;19;20467;-64
2024/01/13 01:04:44;;;;;;;;;;;;;;;5.11;67.27;102724.25;7368391;19;20273;-64
2024/01/13 01:07:09;;;;;;;;;;;;;;;5.11;67.39;102718.19;7364765;19;19911;-64
2024/01/13 01:09:35;;;;;;;;;;;;;;;5.10;67.36;102719.03;7368964;19;20350;-63
2024/01/13 01:12:00;;;;;;;;;;;;;;;5.09;67.60;102712.09;7362875;19;20564;-64
2024/01/13 01:14:25;;;;;;;;;;;;;;;5.08;67.62;102705.19;7364790;19;19919;-63
2024/01/13 01:16:50;;;;;;;;;;;;;;;5.06;67.64;102701.63;7360764;19;19911;-63
2024/01/13 01:19:16;;;;;;;;;;;;;;;5.06;67.67;102691.28;7361743;19;19918;-63
2024/01/13 01:21:41;;;;;;;;;;;;;;;5.04;67.65;102693.84;7364416;19;19911;-64
2024/01/13 01:24:06;;;;;;;;;;;;;;;5.03;67.77;102676.53;7365932;19;19915;-63
2024/01/13 01:26:32;;;;;;;;;;;;;;;5.03;67.51;102680.84;7372107;19;19914;-63
2024/01/13 01:28:57;;;;;;;;;;;;;;;5.01;67.67;102666.94;7364688;19;20328;-63
2024/01/13 01:31:22;;;;;;;;;;;;;;;4.99;67.24;102669.50;7364371;19;20344;-64
2024/01/13 01:33:47;;;;;;;;;;;;;;;4.98;67.66;102661.69;7365227;19;19922;-63
2024/01/13 01:36:13;;;;;;;;;;;;;;;4.95;67.51;102662.47;7371567;19;19922;-64
2024/01/13 01:38:38;;;;;;;;;;;;;;;4.95;67.47;102667.63;7374831;19;19911;-64
2024/01/13 01:41:03;;;;;;;;;;;;;;;4.93;67.73;102654.66;7363090;19;19947;-64
2024/01/13 01:43:29;;;;;;;;;;;;;;;4.91;67.56;102661.47;7356686;19;19947;-63
2024/01/13 01:45:54;;;;;;;;;;;;;;;4.91;67.33;102651.13;7365511;19;19918;-64
2024/01/13 01:48:27;;;;;;;;;;;;;;;4.90;67.73;102643.31;7352236;19;19926;-64
2024/01/13 01:50:52;;;;;;;;;;;;;;;4.89;67.89;102649.34;7368581;19;19919;-64
2024/01/13 01:53:17;;;;;;;;;;;;;;;4.88;67.77;102650.16;7364420;19;19933;-63
2024/01/13 01:55:43;;;;;;;;;;;;;;;4.87;67.63;102641.53;7362462;19;20291;-63
2024/01/13 01:58:08;;;;;;;;;;;;;;;4.86;67.42;102637.16;7366881;19;19987;-64
2024/01/13 02:00:33;;;;;;;;;;;;;;;4.86;68.00;102628.50;7367696;19;20475;-63
2024/01/13 02:02:59;;;;;;;;;;;;;;;4.85;67.59;102625.06;7363493;19;19915;-63
2024/01/13 02:05:24;;;;;;;;;;;;;;;4.86;67.90;102626.81;7365410;19;19978;-64
2024/01/13 02:07:50;;;;;;;;;;;;;;;4.84;67.98;102622.41;7367712;19;19930;-64
2024/01/13 02:10:19;;;;;;;;;;;;;;;4.83;67.94;102621.53;7361990;19;19931;-63
2024/01/13 02:12:44;;;;;;;;;;;;;;;4.83;67.71;102620.66;7365481;19;19983;-64
2024/01/13 02:15:10;;;;;;;;;;;;;;;4.83;67.84;102616.38;7361448;19;19990;-63
2024/01/13 02:17:36;;;;;;;;;;;;;;;4.82;67.93;102617.22;7363525;19;19911;-62
2024/01/13 02:20:04;;;;;;;;;;;;;;;4.82;67.64;102621.50;7362959;19;20346;-63
2024/01/13 02:22:29;;;;;;;;;;;;;;;4.82;67.75;102612.03;7365826;19;19974;-63
2024/01/13 02:24:54;;;;;;;;;;;;;;;4.82;67.73;102616.34;7363075;19;19992;-63
2024/01/13 02:27:20;;;;;;;;;;;;;;;4.81;67.99;102609.38;7358744;19;19923;-63
2024/01/13 02:29:45;;;;;;;;;;;;;;;4.81;67.64;102601.59;7360806;19;19919;-63
2024/01/13 02:32:10;;;;;;;;;;;;;;;4.81;68.08;102602.47;7362843;19;19926;-63
2024/01/13 02:34:36;;;;;;;;;;;;;;;4.81;68.11;102611.97;7367849;19;20044;-63
2024/01/13 02:37:01;;;;;;;;;;;;;;;4.80;68.04;102600.72;7363884;19;19931;-63
2024/01/13 02:39:26;;;;;;;;;;;;;;;4.79;67.98;102598.97;7360104;19;19960;-64
2024/01/13 02:41:51;;;;;;;;;;;;;;;4.69;67.87;102586.59;7362331;19;19915;-64
2024/01/13 02:44:17;;;;;;;;;;;;;;;4.81;67.82;102601.59;7363919;19;19919;-64
2024/01/13 02:46:42;;;;;;;;;;;;;;;4.80;67.77;102603.31;7366341;19;20645;-63
2024/01/13 02:49:07;;;;;;;;;;;;;;;4.79;67.83;102606.75;7361987;19;20004;-63
2024/01/13 02:51:33;;;;;;;;;;;;;;;4.79;68.08;102593.81;7361505;19;19932;-64
2024/01/13 02:53:58;;;;;;;;;;;;;;;4.80;68.03;102587.78;7361048;19;19919;-63
2024/01/13 02:56:23;;;;;;;;;;;;;;;4.81;67.72;102588.66;7356192;19;20269;-64
2024/01/13 02:58:48;;;;;;;;;;;;;;;4.82;68.03;102588.72;7356819;19;20776;-64
2024/01/13 03:01:14;;;;;;;;;;;;;;;4.82;68.30;102587.84;7361813;19;19927;-64
2024/01/13 03:03:39;;;;;;;;;;;;;;;4.81;67.75;102579.19;7362940;19;20374;-64
2024/01/13 03:06:05;;;;;;;;;;;;;;;4.82;68.30;102578.38;7370020;19;19930;-64
2024/01/13 03:08:30;;;;;;;;;;;;;;;4.82;67.82;102567.16;7361258;19;19922;-63
2024/01/13 03:10:55;;;;;;;;;;;;;;;4.81;68.20;102566.25;7363926;19;19918;-63
2024/01/13 03:13:20;;;;;;;;;;;;;;;4.81;68.15;102571.41;7361137;19;20344;-62
2024/01/13 03:15:46;;;;;;;;;;;;;;;4.81;68.05;102566.25;7360912;19;19926;-62
2024/01/13 03:18:11;;;;;;;;;;;;;;;4.81;68.10;102558.47;7359715;19;19915;-63
2024/01/13 03:20:36;;;;;;;;;;;;;;;4.82;67.87;102547.31;7361585;19;19922;-64
2024/01/13 03:23:01;;;;;;;;;;;;;;;4.71;67.79;102532.28;7360949;19;19923;-63
2024/01/13 03:25:27;;;;;;;;;;;;;;;4.80;67.72;102548.97;7361602;19;19933;-63
2024/01/13 03:27:52;;;;;;;;;;;;;;;4.80;67.88;102532.56;7359640;19;19978;-64
2024/01/13 03:30:17;;;;;;;;;;;;;;;4.80;67.91;102532.56;7361763;19;19931;-64
2024/01/13 03:32:43;;;;;;;;;;;;;;;4.79;68.04;102526.50;7362812;19;19933;-63
2024/01/13 03:35:08;;;;;;;;;;;;;;;4.77;67.91;102528.19;7363557;19;19929;-64
2024/01/13 03:37:33;;;;;;;;;;;;;;;4.77;67.88;102519.53;7364743;19;19968;-63
2024/01/13 03:39:59;;;;;;;;;;;;;;;4.78;68.35;102526.47;7359765;19;19952;-64
2024/01/13 03:42:24;;;;;;;;;;;;;;;4.76;68.07;102518.63;7362548;19;19918;-65
2024/01/13 03:44:49;;;;;;;;;;;;;;;4.75;68.25;102518.59;7358714;19;19921;-63
2024/01/13 03:47:14;;;;;;;;;;;;;;;4.75;67.82;102514.31;7360346;19;19926;-63
2024/01/13 03:49:40;;;;;;;;;;;;;;;4.75;68.22;102516.88;7358738;19;19923;-64
2024/01/13 03:52:05;;;;;;;;;;;;;;;4.74;67.94;102512.56;7361288;19;19918;-63
2024/01/13 03:54:30;;;;;;;;;;;;;;;4.73;68.25;102504.75;7355491;19;19935;-63
2024/01/13 03:56:55;;;;;;;;;;;;;;;4.73;68.30;102507.34;7355162;19;20316;-63
2024/01/13 03:59:21;;;;;;;;;;;;;;;4.71;68.08;102502.09;7358011;19;20018;-64
2024/01/13 04:01:46;;;;;;;;;;;;;;;4.69;68.33;102498.59;7363645;19;19919;-63
2024/01/13 04:04:11;;;;;;;;;;;;;;;4.69;68.02;102498.59;7358126;19;20008;-63
2024/01/13 04:06:40;;;;;;;;;;;;;;;4.67;68.10;102495.09;7361265;19;19942;-64
2024/01/13 04:09:05;;;;;;;;;;;;;;;4.67;68.28;102487.34;7362747;19;19941;-64
2024/01/13 04:11:31;;;;;;;;;;;;;;;4.65;68.07;102484.69;7369058;19;19918;-64
2024/01/13 04:13:56;;;;;;;;;;;;;;;4.65;68.31;102483.81;7364918;19;19925;-64
2024/01/13 04:16:21;;;;;;;;;;;;;;;4.64;68.35;102476.88;7364971;19;20042;-64
2024/01/13 04:18:46;;;;;;;;;;;;;;;4.62;67.97;102465.63;7337025;19;20627;-63
2024/01/13 04:21:12;;;;;;;;;;;;;;;4.62;68.17;102470.78;7364006;19;19922;-64
2024/01/13 04:23:37;;;;;;;;;;;;;;;4.60;68.40;102467.25;7367146;19;19933;-64
2024/01/13 04:26:02;;;;;;;;;;;;;;;4.59;67.92;102468.09;7369467;19;20001;-63
2024/01/13 04:28:27;;;;;;;;;;;;;;;4.59;68.28;102465.50;7367477;19;19929;-63
2024/01/13 04:30:53;;;;;;;;;;;;;;;4.57;68.14;102462.00;7376249;19;19940;-64
2024/01/13 04:33:18;;;;;;;;;;;;;;;4.56;68.34;102462.81;7366124;19;19923;-64
2024/01/13 04:35:43;;;;;;;;;;;;;;;4.55;68.01;102453.31;7367746;19;19919;-64
2024/01/13 04:38:08;;;;;;;;;;;;;;;4.55;68.30;102450.72;7369116;19;20439;-64
2024/01/13 04:40:36;;;;;;;;;;;;;;;4.56;68.14;102449.88;7369229;19;19919;-64
2024/01/13 04:43:02;;;;;;;;;;;;;;;4.56;68.26;102439.53;7363516;19;19960;-64
2024/01/13 04:45:27;;;;;;;;;;;;;;;4.56;68.48;102439.53;7369111;19;19926;-63
2024/01/13 04:47:52;;;;;;;;;;;;;;;4.56;68.52;102439.53;7359084;19;19914;-63
2024/01/13 04:50:18;;;;;;;;;;;;;;;4.55;68.44;102438.66;7367830;19;19930;-63
2024/01/13 04:52:43;;;;;;;;;;;;;;;4.54;68.45;102436.91;7365755;19;20427;-64
2024/01/13 04:55:08;;;;;;;;;;;;;;;4.56;68.08;102439.53;7368873;19;19910;-64
2024/01/13 04:57:33;;;;;;;;;;;;;;;4.56;68.32;102440.44;7366527;19;19933;-64
2024/01/13 04:59:59;;;;;;;;;;;;;;;4.56;68.37;102434.34;7367203;19;19919;-64
2024/01/13 05:02:24;;;;;;;;;;;;;;;4.55;68.39;102443.84;7365060;19;19930;-64
2024/01/13 05:04:49;;;;;;;;;;;;;;;4.55;68.65;102432.63;7366759;19;19923;-63
2024/01/13 05:07:15;;;;;;;;;;;;;;;4.55;68.43;102437.78;7367455;19;20327;-64
2024/01/13 05:09:40;;;;;;;;;;;;;;;4.55;68.54;102428.31;7361320;19;19990;-63
2024/01/13 05:12:06;;;;;;;;;;;;;;;4.54;68.50;102421.38;7367195;19;19923;-63
2024/01/13 05:14:31;;;;;;;;;;;;;;;4.56;68.34;102421.44;7368343;19;19921;-64
2024/01/13 05:16:57;;;;;;;;;;;;;;;4.56;68.24;102418.84;7370421;19;19914;-63
2024/01/13 05:19:22;;;;;;;;;;;;;;;4.56;68.36;102421.44;7371377;19;19914;-64
2024/01/13 05:21:47;;;;;;;;;;;;;;;4.57;68.53;102411.16;7365911;19;19946;-63
2024/01/13 05:24:14;;;;;;;;;;;;;;;4.56;68.43;102411.06;7365681;19;20332;-64
2024/01/13 05:26:39;;;;;;;;;;;;;;;4.56;68.40;102409.41;7367159;19;19942;-64
2024/01/13 05:29:04;;;;;;;;;;;;;;;4.57;68.44;102410.28;7365106;19;19931;-64
2024/01/13 05:31:30;;;;;;;;;;;;;;;4.58;68.53;102415.47;7368140;19;19926;-64
2024/01/13 05:33:55;;;;;;;;;;;;;;;4.57;68.70;102400.78;7360142;19;19975;-64
2024/01/13 05:36:21;;;;;;;;;;;;;;;4.59;68.45;102400.84;7367315;19;20055;-64
2024/01/13 05:38:47;;;;;;;;;;;;;;;4.59;68.76;102390.47;7363143;19;20286;-64
2024/01/13 05:41:12;;;;;;;;;;;;;;;4.60;68.62;102395.69;7369413;19;20282;-63
2024/01/13 05:43:37;;;;;;;;;;;;;;;4.59;68.83;102393.06;7359397;19;21744;-63
2024/01/13 05:46:02;;;;;;;;;;;;;;;4.61;68.64;102386.22;7366789;19;19922;-64
2024/01/13 05:48:28;;;;;;;;;;;;;;;4.62;68.83;102398.34;7360311;19;19943;-63
2024/01/13 05:50:53;;;;;;;;;;;;;;;4.61;68.48;102375.88;7365445;19;19918;-64
2024/01/13 05:53:19;;;;;;;;;;;;;;;4.62;68.68;102377.66;7356944;19;19922;-63
2024/01/13 05:55:44;;;;;;;;;;;;;;;4.61;68.59;102360.34;7366677;19;20269;-64
2024/01/13 05:58:09;;;;;;;;;;;;;;;4.61;68.71;102361.25;7362081;19;19919;-64
2024/01/13 06:00:35;;;;;;;;;;;;;;;4.61;68.70;102356.06;7365372;19;19933;-63
2024/01/13 06:03:00;;;;;;;;;;;;;;;4.62;68.65;102356.94;7363999;19;20013;-64
2024/01/13 06:05:26;;;;;;;;;;;;;;;4.62;68.56;102359.53;7363717;19;19931;-64
2024/01/13 06:07:51;;;;;;;;;;;;;;;4.62;68.89;102349.19;7364974;19;19919;-63
2024/01/13 06:10:19;;;;;;;;;;;;;;;4.61;68.46;102355.16;7363530;19;19927;-63
2024/01/13 06:12:47;;;;;;;;;;;;;;;4.61;68.54;102350.00;7364920;19;19971;-63
2024/01/13 06:15:13;;;;;;;;;;;;;;;4.60;68.70;102351.72;7365099;19;19970;-63
2024/01/13 06:17:38;;;;;;;;;;;;;;;4.60;68.89;102340.47;7365315;19;19911;-63
2024/01/13 06:20:04;;;;;;;;;;;;;;;4.60;68.57;102348.25;7360941;19;20038;-64
2024/01/13 06:22:29;;;;;;;;;;;;;;;4.61;68.63;102339.66;7367196;19;19919;-63
2024/01/13 06:24:54;;;;;;;;;;;;;;;4.61;68.93;102326.72;7372827;19;20628;-63
2024/01/13 06:27:19;;;;;;;;;;;;;;;4.61;68.71;102334.47;7367274;19;20044;-64
2024/01/13 06:29:44;;;;;;;;;;;;;;;4.61;68.85;102329.28;7364907;19;19914;-63
2024/01/13 06:32:10;;;;;;;;;;;;;;;4.61;69.03;102316.34;7357437;19;19928;-64
2024/01/13 06:34:35;;;;;;;;;;;;;;;4.62;69.02;102320.72;7365680;19;20347;-64
2024/01/13 06:37:00;;;;;;;;;;;;;;;4.61;68.85;102316.34;7363475;19;19919;-63
2024/01/13 06:39:25;;;;;;;;;;;;;;;4.62;68.66;102315.56;7358798;19;19926;-64
2024/01/13 06:41:51;;;;;;;;;;;;;;;4.62;68.91;102310.38;7367786;19;19994;-64
2024/01/13 06:44:16;;;;;;;;;;;;;;;4.61;68.81;102303.41;7374118;19;19927;-64
2024/01/13 06:46:41;;;;;;;;;;;;;;;4.62;68.86;102305.19;7362554;19;19998;-64
2024/01/13 06:49:06;;;;;;;;;;;;;;;4.61;68.73;102314.69;7363535;19;19919;-64
2024/01/13 06:51:32;;;;;;;;;;;;;;;4.63;68.79;102309.53;7359043;19;19926;-64
2024/01/13 06:53:57;;;;;;;;;;;;;;;4.63;68.74;102310.41;7362860;19;20334;-64
2024/01/13 06:56:23;;;;;;;;;;;;;;;4.64;69.14;102303.53;7358210;19;19929;-64
2024/01/13 06:58:48;;;;;;;;;;;;;;;4.64;68.79;102309.56;7361132;19;19949;-64
2024/01/13 07:01:14;;;;;;;;;;;;;;;4.65;68.62;102300.09;7363875;19;19931;-64
2024/01/13 07:03:39;;;;;;;;;;;;;;;4.64;69.20;102308.69;7360387;19;19919;-64
2024/01/13 07:06:05;;;;;;;;;;;;;;;4.64;69.25;102304.38;7362143;19;19943;-63
2024/01/13 07:08:30;;;;;;;;;;;;;;;4.65;69.24;102302.69;7361251;19;20723;-64
2024/01/13 07:10:56;;;;;;;;;;;;;;;4.65;68.97;102302.69;7333935;19;19919;-64
2024/01/13 07:13:21;;;;;;;;;;;;;;;4.66;69.00;102301.84;7360958;19;19926;-64
2024/01/13 07:15:47;;;;;;;;;;;;;;;4.66;68.80;102299.25;7359944;19;19922;-64
2024/01/13 07:18:12;;;;;;;;;;;;;;;4.67;68.77;102298.44;7358542;19;19914;-64
2024/01/13 07:20:37;;;;;;;;;;;;;;;4.66;68.76;102294.06;7360841;19;20756;-63
2024/01/13 07:23:03;;;;;;;;;;;;;;;4.66;69.19;102287.22;7361136;19;19923;-64
2024/01/13 07:25:30;;;;;;;;;;;;;;;4.67;69.21;102288.09;7362877;19;19925;-64
2024/01/13 07:27:55;;;;;;;;;;;;;;;4.68;68.90;102284.66;7361561;19;19918;-63
2024/01/13 07:30:21;;;;;;;;;;;;;;;4.67;69.34;102278.63;7361881;19;20032;-64
2024/01/13 07:32:46;;;;;;;;;;;;;;;4.68;69.11;102276.91;7354419;19;20315;-64
2024/01/13 07:35:11;;;;;;;;;;;;;;;4.67;69.18;102276.03;7366349;19;19923;-64
2024/01/13 07:37:37;;;;;;;;;;;;;;;4.68;68.92;102289.84;7357117;19;19919;-65
2024/01/13 07:40:02;;;;;;;;;;;;;;;4.68;69.30;102279.50;7363356;19;19926;-64
2024/01/13 07:42:27;;;;;;;;;;;;;;;4.69;69.17;102271.75;7358283;19;20548;-63
2024/01/13 07:44:53;;;;;;;;;;;;;;;4.71;68.92;102278.66;7363520;19;19911;-64
2024/01/13 07:47:18;;;;;;;;;;;;;;;4.71;68.92;102266.59;7376411;19;19966;-64
2024/01/13 07:49:43;;;;;;;;;;;;;;;4.70;68.97;102262.28;7376505;19;20336;-64
2024/01/13 07:52:08;;;;;;;;;;;;;;;4.71;69.33;102274.38;7367404;19;19950;-63
2024/01/13 07:54:34;;;;;;;;;;;;;;;4.72;69.32;102270.09;7362101;19;19916;-64
2024/01/13 07:56:59;;;;;;;;;;;;;;;4.71;69.01;102258.84;7369706;19;20455;-63
2024/01/13 07:59:24;;;;;;;;;;;;;;;4.73;69.02;102262.38;7367621;19;20675;-64
2024/01/13 08:01:50;;;;;;;;;;;;;;;4.72;69.31;102260.63;7367667;19;20399;-64
2024/01/13 08:04:15;;;;;;;;;;;;;;;4.73;69.06;102257.19;7366611;19;19910;-64
2024/01/13 08:06:41;;;;;;;;;;;;;;;4.73;69.06;102253.72;7368531;19;20927;-63
2024/01/13 08:09:06;;;;;;;;;;;;;;;4.71;69.13;102243.31;7367577;19;20279;-64
2024/01/13 08:11:32;;;;;;;;;;;;;;;4.71;68.93;102248.50;7367330;19;19926;-64
2024/01/13 08:13:57;;;;;;;;;;;;;;;4.71;69.29;102243.31;7366983;19;19922;-64
2024/01/13 08:16:23;;;;;;;;;;;;;;;4.70;69.34;102233.81;7363542;19;19922;-64
2024/01/13 08:18:48;;;;;;;;;;;;;;;4.70;69.01;102236.41;7366787;19;19927;-64
2024/01/13 08:21:13;;;;;;;;;;;;;;;4.70;69.33;102239.00;7358260;19;19921;-63
2024/01/13 08:23:39;;;;;;;;;;;;;;;4.70;69.01;102239.00;7369699;19;19923;-63
2024/01/13 08:26:04;;;;;;;;;;;;;;;4.69;69.17;102232.06;7365174;19;19918;-63
2024/01/13 08:28:29;;;;;;;;;;;;;;;4.69;69.09;102240.69;7368247;19;19930;-63
2024/01/13 08:30:54;;;;;;;;;;;;;;;4.70;69.20;102231.22;7366592;19;19914;-63
2024/01/13 08:33:20;;;;;;;;;;;;;;;4.70;69.46;102241.56;7356680;19;19918;-63
2024/01/13 08:35:45;;;;;;;;;;;;;;;4.71;69.52;102238.16;7366657;19;21065;-64
2024/01/13 08:38:11;;;;;;;;;;;;;;;4.71;69.52;102226.91;7360323;19;19921;-64
2024/01/13 08:40:36;;;;;;;;;;;;;;;4.72;69.15;102226.97;7364829;19;20098;-64
2024/01/13 08:43:03;;;;;;;;;;;;;;;4.73;69.06;102239.06;7364529;19;20504;-64
2024/01/13 08:45:33;;;;;;;;;;;;;;;4.72;69.20;102234.75;7362976;19;20531;-64
2024/01/13 08:47:58;;;;;;;;;;;;;;;4.74;69.39;102233.06;7363966;19;21806;-64
2024/01/13 08:50:24;;;;;;;;;;;;;;;4.75;69.25;102237.41;7364337;19;19954;-64
2024/01/13 08:52:52;;;;;;;;;;;;;;;4.75;69.26;102229.63;7361832;19;19915;-64
2024/01/13 08:55:20;;;;;;;;;;;;;;;4.76;69.20;102233.09;7368647;19;19931;-63
2024/01/13 08:57:46;;;;;;;;;;;;;;;4.77;69.34;102230.56;7364306;19;19943;-64
2024/01/13 09:00:11;;;;;;;;;;;;;;;4.77;69.56;102233.16;7363140;19;20324;-64
2024/01/13 09:02:39;;;;;;;;;;;;;;;4.79;69.38;102230.59;7359634;19;19923;-63
2024/01/13 09:05:04;;;;;;;;;;;;;;;4.80;69.59;102234.94;7366942;19;19977;-63
2024/01/13 09:07:29;;;;;;;;;;;;;;;4.80;69.25;102233.22;7375270;19;20282;-64
2024/01/13 09:09:55;;;;;;;;;;;;;;;4.80;69.61;102233.22;7373389;19;19926;-64
2024/01/13 09:12:20;;;;;;;;;;;;;;;4.80;69.57;102233.22;7371847;19;19994;-63
2024/01/13 09:14:45;;;;;;;;;;;;;;;4.81;69.68;102234.97;7373095;19;19926;-63
2024/01/13 09:17:11;;;;;;;;;;;;;;;4.81;69.40;102229.78;7371728;19;20283;-63
2024/01/13 09:19:37;;;;;;;;;;;;;;;4.81;69.37;102234.97;7374622;19;19940;-63
2024/01/13 09:22:02;;;;;;;;;;;;;;;4.82;69.36;102226.38;7362918;19;20287;-64
2024/01/13 09:24:28;;;;;;;;;;;;;;;4.83;69.44;102227.25;7360960;19;20294;-64
2024/01/13 09:26:55;;;;;;;;;;;;;;;4.86;69.47;102227.31;7363993;19;19911;-64
2024/01/13 09:29:20;;;;;;;;;;;;;;;4.86;69.41;102223.00;7365786;19;20056;-63
2024/01/13 09:31:46;;;;;;;;;;;;;;;4.90;69.70;102230.00;7356239;19;19942;-64
2024/01/13 09:34:11;;;;;;;;;;;;;;;4.93;69.68;102224.94;7360852;19;19915;-63
2024/01/13 09:36:36;;;;;;;;;;;;;;;4.99;69.63;102223.34;7349735;19;19930;-64
2024/01/13 09:39:02;;;;;;;;;;;;;;;5.03;69.66;102220.00;7363144;19;20300;-63
2024/01/13 09:41:29;;;;;;;;;;;;;;;5.07;70.07;102224.38;7371801;19;19925;-63
2024/01/13 09:44:13;;;;;;;;;;;;;;;5.11;69.64;102218.44;7367771;19;19978;-64
2024/01/13 09:46:38;;;;;;;;;;;;;;;5.16;69.88;102215.13;7358849;19;19918;-64
2024/01/13 09:49:08;;;;;;;;;;;;;;;5.20;69.65;102208.31;7363257;19;20015;-63
2024/01/13 09:51:34;;;;;;;;;;;;;;;5.22;69.66;102206.66;7356772;19;19944;-64
2024/01/13 09:54:11;;;;;;;;;;;;;;;5.28;69.70;102211.09;7363117;19;19930;-64
2024/01/13 09:56:41;;;;;;;;;;;;;;;5.33;69.65;102214.66;7366790;19;20248;-64
2024/01/13 09:59:06;;;;;;;;;;;;;;;5.36;69.93;102207.81;7360783;19;19937;-64
2024/01/13 10:01:31;;;;;;;;;;;;;;;5.40;69.85;102211.34;7368905;19;20324;-64
2024/01/13 10:03:57;;;;;;;;;;;;;;;5.43;69.52;102209.72;7361638;19;20004;-64
2024/01/13 10:06:24;;;;;;;;;;;;;;;5.47;69.66;102206.38;7363391;19;19929;-64
2024/01/13 10:08:49;;;;;;;;;;;;;;;5.52;70.01;102210.75;7363474;19;19947;-64
2024/01/13 10:11:14;;;;;;;;;;;;;;;5.54;69.88;102204.78;7363545;19;20273;-64
2024/01/13 10:13:41;;;;;;;;;;;;;;;5.59;70.05;102205.75;7360474;19;19923;-64
2024/01/13 10:16:06;;;;;;;;;;;;;;;5.64;69.75;102205.84;7369774;19;19919;-64
2024/01/13 10:18:31;;;;;;;;;;;;;;;5.67;69.73;102190.34;7362649;19;20817;-64
2024/01/13 10:20:57;;;;;;;;;;;;;;;5.72;69.76;102199.09;7356860;19;19919;-64
2024/01/13 10:23:22;;;;;;;;;;;;;;;5.76;69.95;102185.38;7363803;19;19946;-64
2024/01/13 10:25:48;;;;;;;;;;;;;;;5.82;69.94;102189.81;7362154;19;19926;-63
2024/01/13 10:28:14;;;;;;;;;;;;;;;5.85;69.68;102179.50;7363138;19;19930;-64
2024/01/13 10:30:40;;;;;;;;;;;;;;;5.89;70.07;102187.38;7363027;19;19919;-64
2024/01/13 10:33:08;;;;;;;;;;;;;;;5.94;69.90;102195.28;7362059;19;19951;-63
2024/01/13 10:35:33;;;;;;;;;;;;;;;5.97;70.02;102188.41;7362804;19;20598;-64
2024/01/13 10:37:58;;;;;;;;;;;;;;;6.02;69.90;102177.28;7357916;19;19922;-64
2024/01/13 10:40:24;;;;;;;;;;;;;;;6.04;69.81;102170.41;7361582;19;20512;-64
2024/01/13 10:42:53;;;;;;;;;;;;;;;6.07;69.86;102180.81;7364121;19;19919;-63
2024/01/13 10:45:21;;;;;;;;;;;;;;;6.11;69.88;102177.47;7360232;19;19927;-64
2024/01/13 10:47:50;;;;;;;;;;;;;;;6.13;69.69;102176.66;7329298;19;20323;-64
2024/01/13 10:50:15;;;;;;;;;;;;;;;6.16;69.99;102171.50;7364024;19;19926;-64
2024/01/13 10:52:40;;;;;;;;;;;;;;;6.20;69.62;102177.63;7364694;19;19919;-63
2024/01/13 10:55:09;;;;;;;;;;;;;;;6.23;69.62;102172.50;7362271;19;20229;-64
2024/01/13 10:57:35;;;;;;;;;;;;;;;6.27;69.73;102179.50;7359415;19;19921;-63
2024/01/13 11:00:00;;;;;;;;;;;;;;;6.31;69.77;102177.84;7365953;19;19934;-64
2024/01/13 11:02:29;;;;;;;;;;;;;;;6.35;70.17;102183.13;7362267;19;20012;-64
2024/01/13 11:04:56;;;;;;;;;;;;;;;6.38;69.78;102182.28;7368374;19;19937;-64
2024/01/13 11:07:22;;;;;;;;;;;;;;;6.41;70.04;102172.84;7360467;19;19919;-64
2024/01/13 11:09:48;;;;;;;;;;;;;;;6.45;69.94;102174.66;7363458;19;20984;-64
2024/01/13 11:12:24;;;;;;;;;;;;;;;6.49;70.04;102171.28;7360714;19;19929;-63
2024/01/13 11:15:03;;;;;;;;;;;;;;;6.55;69.94;102169.63;7362052;19;19923;-64
2024/01/13 11:17:29;;;;;;;;;;;;;;;6.61;70.25;102177.50;7359037;19;19918;-64
2024/01/13 11:19:54;;;;;;;;;;;;;;;6.67;69.82;102164.63;7366058;19;19950;-64
2024/01/13 11:22:33;;;;;;;;;;;;;;;6.72;69.92;102162.97;7366015;19;19923;-64
2024/01/13 11:24:58;;;;;;;;;;;;;;;6.80;70.24;102151.00;7364048;19;19927;-64
2024/01/13 11:27:24;;;;;;;;;;;;;;;6.85;70.12;102145.91;7358792;19;19915;-64
2024/01/13 11:29:50;;;;;;;;;;;;;;;6.90;69.72;102146.84;7359871;19;20613;-64
2024/01/13 11:32:15;;;;;;;;;;;;;;;6.95;70.26;102145.19;7360622;19;19913;-64
2024/01/13 11:34:40;;;;;;;;;;;;;;;7.01;69.93;102145.28;7355485;19;20584;-64
2024/01/13 11:37:06;;;;;;;;;;;;;;;7.04;69.96;102134.91;7359366;19;19926;-63
2024/01/13 11:39:32;;;;;;;;;;;;;;;7.08;70.03;102130.66;7357237;19;19930;-64
2024/01/13 11:41:57;;;;;;;;;;;;;;;7.11;69.95;102122.91;7362825;19;19923;-63
2024/01/13 11:44:24;;;;;;;;;;;;;;;7.12;69.52;102132.44;7355043;19;20434;-64
2024/01/13 11:46:55;;;;;;;;;;;;;;;7.13;69.72;102119.47;7356209;19;19919;-64
2024/01/13 11:49:28;;;;;;;;;;;;;;;7.13;69.71;102116.88;7356532;19;19940;-64
2024/01/13 11:52:06;;;;;;;;;;;;;;;7.13;69.65;102116.00;7359852;19;19939;-64
2024/01/13 11:54:32;;;;;;;;;;;;;;;7.13;69.78;102113.41;7361058;19;19947;-64
2024/01/13 11:56:58;;;;;;;;;;;;;;;7.12;69.52;102106.47;7358435;19;19923;-65
2024/01/13 11:59:24;;;;;;;;;;;;;;;7.12;69.77;102107.34;7360356;19;20511;-64
2024/01/13 12:01:52;;;;;;;;;;;;;;;7.12;69.49;102102.16;7361066;19;19919;-64
2024/01/13 12:04:17;;;;;;;;;;;;;;;7.13;69.76;102100.41;7366833;19;19923;-63
2024/01/13 12:06:43;;;;;;;;;;;;;;;7.13;69.52;102097.81;7358060;19;19926;-64
2024/01/13 12:09:10;;;;;;;;;;;;;;;7.13;69.43;102095.22;7351793;19;19923;-65
2024/01/13 12:11:35;;;;;;;;;;;;;;;7.12;69.61;102096.94;7358176;19;19919;-64
2024/01/13 12:14:03;;;;;;;;;;;;;;;7.12;69.33;102090.88;7358614;19;20723;-65
2024/01/13 12:16:29;;;;;;;;;;;;;;;7.11;69.47;102081.34;7360490;19;20014;-64
2024/01/13 12:18:55;;;;;;;;;;;;;;;7.09;69.60;102078.72;7357263;19;20022;-64
2024/01/13 12:21:20;;;;;;;;;;;;;;;7.09;69.73;102077.84;7360106;19;19922;-64
2024/01/13 12:23:45;;;;;;;;;;;;;;;7.09;69.79;102075.25;7357167;19;19914;-64
2024/01/13 12:26:10;;;;;;;;;;;;;;;7.07;69.88;102067.44;7361672;19;20257;-64
2024/01/13 12:28:36;;;;;;;;;;;;;;;7.08;69.45;102065.72;7353265;19;19934;-64
2024/01/13 12:31:02;;;;;;;;;;;;;;;7.07;69.76;102061.38;7367529;19;20028;-64
2024/01/13 12:33:27;;;;;;;;;;;;;;;7.07;69.87;102054.44;7366017;19;19919;-64
2024/01/13 12:35:59;;;;;;;;;;;;;;;7.08;69.58;102063.13;7363903;19;19926;-64
2024/01/13 12:38:27;;;;;;;;;;;;;;;7.06;69.67;102052.72;7371627;19;20482;-64
2024/01/13 12:40:53;;;;;;;;;;;;;;;7.06;69.77;102050.13;7362932;19;19915;-65